createdAt,value
2018-05-24T00:00:04.265Z,0
2018-05-24T00:01:06.597Z,0
2018-05-24T00:02:08.631Z,0
2018-05-24T00:03:10.951Z,0
2018-05-24T00:04:12.989Z,0
2018-05-24T00:05:15.037Z,0
2018-05-24T00:06:17.374Z,0
2018-05-24T00:07:19.413Z,0
2018-05-24T00:08:21.848Z,0
2018-05-24T00:09:24.178Z,0
2018-05-24T00:10:26.220Z,0
2018-05-24T00:11:28.253Z,0
2018-05-24T00:12:30.577Z,0
2018-05-24T00:13:32.616Z,0
2018-05-24T00:14:34.669Z,0
2018-05-24T00:15:36.703Z,0
2018-05-24T00:16:38.751Z,0
2018-05-24T00:17:40.796Z,0
2018-05-24T00:18:42.825Z,0
2018-05-24T00:19:44.870Z,0
2018-05-24T00:20:46.907Z,0
2018-05-24T00:21:48.945Z,0
2018-05-24T00:22:50.982Z,0
2018-05-24T00:23:53.294Z,0
2018-05-24T00:24:55.334Z,0
2018-05-24T00:25:57.366Z,0
2018-05-24T00:26:59.405Z,0
2018-05-24T00:28:01.450Z,0
2018-05-24T00:29:03.773Z,0
2018-05-24T00:30:05.815Z,0
2018-05-24T00:31:07.861Z,0
2018-05-24T00:32:09.886Z,0
2018-05-24T00:33:11.938Z,0
2018-05-24T00:34:13.971Z,0
2018-05-24T00:35:16.020Z,0
2018-05-24T00:36:18.093Z,0
2018-05-24T00:37:20.435Z,0
2018-05-24T00:38:22.470Z,0
2018-05-24T00:39:24.502Z,0
2018-05-24T00:40:26.530Z,0
2018-05-24T00:41:28.584Z,0
2018-05-24T00:42:30.617Z,0
2018-05-24T00:43:32.659Z,0
2018-05-24T00:44:35.001Z,0
2018-05-24T00:45:37.033Z,0
2018-05-24T00:46:39.369Z,0
2018-05-24T00:47:41.695Z,0
2018-05-24T00:48:43.727Z,0
2018-05-24T00:49:45.776Z,0
2018-05-24T00:50:47.804Z,0
2018-05-24T00:51:49.842Z,0
2018-05-24T00:52:51.880Z,0
2018-05-24T00:53:53.913Z,0
2018-05-24T00:54:56.325Z,0
2018-05-24T00:55:58.379Z,0
2018-05-24T00:57:00.421Z,0
2018-05-24T00:58:02.850Z,0
2018-05-24T00:59:05.197Z,0
2018-05-24T01:00:07.915Z,0
2018-05-24T01:01:09.948Z,0
2018-05-24T01:02:11.986Z,0
2018-05-24T01:03:14.319Z,0
2018-05-24T01:04:16.364Z,0
2018-05-24T01:05:18.396Z,0
2018-05-24T01:06:20.468Z,0
2018-05-24T01:07:22.514Z,0
2018-05-24T01:08:24.543Z,0
2018-05-24T01:09:26.583Z,0
2018-05-24T01:10:28.619Z,0
2018-05-24T01:11:30.664Z,0
2018-05-24T01:12:33.096Z,0
2018-05-24T01:13:35.509Z,0
2018-05-24T01:14:37.553Z,0
2018-05-24T01:15:39.586Z,0
2018-05-24T01:16:41.627Z,0
2018-05-24T01:17:43.670Z,0
2018-05-24T01:18:45.714Z,0
2018-05-24T01:19:47.756Z,0
2018-05-24T01:20:49.790Z,0
2018-05-24T01:21:51.829Z,0
2018-05-24T01:22:53.877Z,0
2018-05-24T01:23:56.295Z,0
2018-05-24T01:24:58.338Z,0
2018-05-24T01:26:00.382Z,0
2018-05-24T01:27:02.416Z,0
2018-05-24T01:28:04.452Z,0
2018-05-24T01:29:06.483Z,0
2018-05-24T01:30:09.297Z,0
2018-05-24T01:31:11.338Z,0
2018-05-24T01:32:13.384Z,0
2018-05-24T01:33:15.415Z,0
2018-05-24T01:34:17.460Z,0
2018-05-24T01:35:19.872Z,0
2018-05-24T01:36:21.932Z,0
2018-05-24T01:37:23.971Z,0
2018-05-24T01:38:26.004Z,0
2018-05-24T01:39:28.049Z,0
2018-05-24T01:40:30.471Z,0
2018-05-24T01:41:32.504Z,0
2018-05-24T01:42:34.533Z,0
2018-05-24T01:43:36.577Z,0
2018-05-24T01:44:38.621Z,0
2018-05-24T01:45:40.649Z,0
2018-05-24T01:46:42.691Z,0
2018-05-24T01:47:44.731Z,0
2018-05-24T01:48:46.771Z,0
2018-05-24T01:49:49.088Z,0
2018-05-24T01:50:51.129Z,0
2018-05-24T01:51:53.158Z,0
2018-05-24T01:52:55.198Z,0
2018-05-24T01:53:57.232Z,0
2018-05-24T01:54:59.281Z,0
2018-05-24T01:56:01.320Z,0
2018-05-24T01:57:03.350Z,0
2018-05-24T01:58:05.392Z,0
2018-05-24T01:59:07.419Z,0
2018-05-24T02:00:10.038Z,0
2018-05-24T02:01:12.079Z,0
2018-05-24T02:02:14.121Z,0
2018-05-24T02:03:16.168Z,0
2018-05-24T02:04:18.189Z,0
2018-05-24T02:05:20.524Z,0
2018-05-24T02:06:22.566Z,0
2018-05-24T02:07:24.600Z,0
2018-05-24T02:08:26.646Z,0
2018-05-24T02:09:28.667Z,0
2018-05-24T02:10:30.699Z,0
2018-05-24T02:11:32.752Z,0
2018-05-24T02:12:34.776Z,0
2018-05-24T02:13:36.819Z,0
2018-05-24T02:14:38.857Z,4
2018-05-24T02:15:40.890Z,4
2018-05-24T02:16:42.942Z,0
2018-05-24T02:17:45.256Z,0
2018-05-24T02:18:47.303Z,4
2018-05-24T02:19:49.335Z,4
2018-05-24T02:20:51.369Z,4
2018-05-24T02:21:53.406Z,4
2018-05-24T02:22:55.447Z,4
2018-05-24T02:23:57.486Z,8
2018-05-24T02:24:59.530Z,4
2018-05-24T02:26:01.558Z,8
2018-05-24T02:27:03.597Z,8
2018-05-24T02:28:05.623Z,12
2018-05-24T02:29:07.745Z,12
2018-05-24T02:30:10.107Z,12
2018-05-24T02:31:12.147Z,12
2018-05-24T02:32:14.887Z,16
2018-05-24T02:33:16.921Z,20
2018-05-24T02:34:18.957Z,24
2018-05-24T02:35:21.382Z,24
2018-05-24T02:36:23.400Z,24
2018-05-24T02:37:25.848Z,32
2018-05-24T02:38:27.898Z,32
2018-05-24T02:39:29.926Z,40
2018-05-24T02:40:31.967Z,44
2018-05-24T02:41:34.005Z,48
2018-05-24T02:42:36.041Z,56
2018-05-24T02:43:39.162Z,64
2018-05-24T02:44:41.498Z,72
2018-05-24T02:45:43.544Z,80
2018-05-24T02:46:45.866Z,88
2018-05-24T02:47:47.902Z,96
2018-05-24T02:48:50.225Z,108
2018-05-24T02:49:52.249Z,120
2018-05-24T02:50:54.893Z,132
2018-05-24T02:51:56.945Z,148
2018-05-24T02:52:58.987Z,160
2018-05-24T02:54:01.028Z,176
2018-05-24T02:55:03.452Z,192
2018-05-24T02:56:05.555Z,208
2018-05-24T02:57:07.829Z,228
2018-05-24T02:58:10.257Z,248
2018-05-24T02:59:12.302Z,268
2018-05-24T03:00:14.627Z,288
2018-05-24T03:01:16.659Z,312
2018-05-24T03:02:18.982Z,336
2018-05-24T03:03:21.314Z,364
2018-05-24T03:04:23.347Z,392
2018-05-24T03:05:26.061Z,420
2018-05-24T03:06:28.404Z,448
2018-05-24T03:07:30.454Z,476
2018-05-24T03:08:32.482Z,512
2018-05-24T03:09:34.519Z,540
2018-05-24T03:10:36.576Z,572
2018-05-24T03:11:38.600Z,612
2018-05-24T03:12:40.641Z,644
2018-05-24T03:13:42.969Z,684
2018-05-24T03:14:45.294Z,716
2018-05-24T03:15:47.329Z,752
2018-05-24T03:16:49.745Z,796
2018-05-24T03:17:52.183Z,828
2018-05-24T03:18:54.512Z,872
2018-05-24T03:19:56.543Z,912
2018-05-24T03:20:58.971Z,948
2018-05-24T03:22:01.013Z,992
2018-05-24T03:23:03.058Z,1036
2018-05-24T03:24:05.091Z,1076
2018-05-24T03:25:07.130Z,1120
2018-05-24T03:26:09.163Z,1164
2018-05-24T03:27:11.204Z,1208
2018-05-24T03:28:13.243Z,1248
2018-05-24T03:29:15.281Z,1292
2018-05-24T03:30:17.319Z,1340
2018-05-24T03:31:20.423Z,1376
2018-05-24T03:32:22.552Z,1424
2018-05-24T03:33:24.495Z,1468
2018-05-24T03:34:26.539Z,1512
2018-05-24T03:35:28.568Z,1556
2018-05-24T03:36:30.603Z,1604
2018-05-24T03:37:33.029Z,1644
2018-05-24T03:38:35.052Z,1684
2018-05-24T03:39:37.104Z,1724
2018-05-24T03:40:39.528Z,1784
2018-05-24T03:41:41.545Z,1812
2018-05-24T03:42:43.591Z,1856
2018-05-24T03:43:45.631Z,1892
2018-05-24T03:44:47.954Z,1932
2018-05-24T03:45:50.278Z,1992
2018-05-24T03:46:52.310Z,2016
2018-05-24T03:47:54.351Z,2056
2018-05-24T03:48:56.395Z,2096
2018-05-24T03:49:58.425Z,2144
2018-05-24T03:51:00.775Z,2172
2018-05-24T03:52:02.852Z,2212
2018-05-24T03:53:05.270Z,2244
2018-05-24T03:54:07.306Z,2280
2018-05-24T03:55:09.344Z,2316
2018-05-24T03:56:11.378Z,2352
2018-05-24T03:57:13.417Z,2388
2018-05-24T03:58:15.459Z,2420
2018-05-24T03:59:17.500Z,2452
2018-05-24T04:00:19.528Z,2488
2018-05-24T04:01:21.568Z,2528
2018-05-24T04:02:23.619Z,2556
2018-05-24T04:03:25.655Z,2596
2018-05-24T04:04:27.690Z,2640
2018-05-24T04:05:29.725Z,2672
2018-05-24T04:06:32.031Z,2724
2018-05-24T04:07:34.084Z,2744
2018-05-24T04:08:36.404Z,2776
2018-05-24T04:09:38.439Z,2816
2018-05-24T04:10:40.479Z,2848
2018-05-24T04:11:42.521Z,2884
2018-05-24T04:12:44.549Z,2908
2018-05-24T04:13:46.593Z,2932
2018-05-24T04:14:49.023Z,2944
2018-05-24T04:15:51.354Z,2972
2018-05-24T04:16:53.680Z,2992
2018-05-24T04:17:55.736Z,3016
2018-05-24T04:18:58.063Z,3028
2018-05-24T04:20:00.094Z,3048
2018-05-24T04:21:02.136Z,3060
2018-05-24T04:22:04.179Z,3100
2018-05-24T04:23:06.519Z,3108
2018-05-24T04:24:08.847Z,3144
2018-05-24T04:25:11.460Z,3160
2018-05-24T04:26:13.793Z,3180
2018-05-24T04:27:16.522Z,3216
2018-05-24T04:28:18.554Z,3224
2018-05-24T04:29:20.597Z,3252
2018-05-24T04:30:22.638Z,3276
2018-05-24T04:31:24.674Z,3304
2018-05-24T04:32:26.723Z,3312
2018-05-24T04:33:28.765Z,3336
2018-05-24T04:34:30.801Z,3360
2018-05-24T04:35:32.854Z,3384
2018-05-24T04:36:34.901Z,3408
2018-05-24T04:37:36.942Z,3440
2018-05-24T04:38:38.980Z,3460
2018-05-24T04:39:41.026Z,3488
2018-05-24T04:40:43.351Z,3512
2018-05-24T04:41:45.392Z,3520
2018-05-24T04:42:47.437Z,3544
2018-05-24T04:43:49.474Z,3564
2018-05-24T04:44:51.515Z,3600
2018-05-24T04:45:53.549Z,3612
2018-05-24T04:46:55.598Z,3632
2018-05-24T04:47:57.643Z,3648
2018-05-24T04:48:59.965Z,3672
2018-05-24T04:50:02.004Z,3688
2018-05-24T04:51:04.332Z,3708
2018-05-24T04:52:06.400Z,3728
2018-05-24T04:53:08.414Z,3740
2018-05-24T04:54:10.458Z,3752
2018-05-24T04:55:12.514Z,3764
2018-05-24T04:56:14.544Z,3792
2018-05-24T04:57:16.962Z,3800
2018-05-24T04:58:19.013Z,3816
2018-05-24T04:59:21.351Z,3832
2018-05-24T05:00:23.395Z,3852
2018-05-24T05:01:25.750Z,3872
2018-05-24T05:02:27.781Z,3868
2018-05-24T05:03:30.117Z,3880
2018-05-24T05:04:32.163Z,3908
2018-05-24T05:05:34.183Z,3944
2018-05-24T05:06:36.248Z,3976
2018-05-24T05:07:38.283Z,4008
2018-05-24T05:08:40.321Z,4024
2018-05-24T05:09:42.365Z,4048
2018-05-24T05:10:44.391Z,4064
2018-05-24T05:11:46.424Z,4084
2018-05-24T05:12:48.468Z,4100
2018-05-24T05:13:50.503Z,4128
2018-05-24T05:14:53.144Z,4156
2018-05-24T05:15:55.171Z,4176
2018-05-24T05:16:57.798Z,4196
2018-05-24T05:17:59.839Z,4216
2018-05-24T05:19:01.882Z,4232
2018-05-24T05:20:03.925Z,4244
2018-05-24T05:21:05.951Z,4236
2018-05-24T05:22:07.996Z,4252
2018-05-24T05:23:10.383Z,4272
2018-05-24T05:24:12.390Z,4304
2018-05-24T05:25:14.467Z,4300
2018-05-24T05:26:16.463Z,4320
2018-05-24T05:27:18.898Z,4332
2018-05-24T05:28:20.924Z,4372
2018-05-24T05:29:22.962Z,4380
2018-05-24T05:30:25.016Z,4404
2018-05-24T05:31:27.047Z,4420
2018-05-24T05:32:29.777Z,4436
2018-05-24T05:33:31.822Z,4448
2018-05-24T05:34:33.864Z,4452
2018-05-24T05:35:35.904Z,4472
2018-05-24T05:36:38.337Z,4476
2018-05-24T05:37:40.386Z,4484
2018-05-24T05:38:42.743Z,4500
2018-05-24T05:39:44.763Z,4536
2018-05-24T05:40:47.092Z,4540
2018-05-24T05:41:49.129Z,4572
2018-05-24T05:42:51.161Z,4596
2018-05-24T05:43:53.204Z,4632
2018-05-24T05:44:55.303Z,4644
2018-05-24T05:45:57.786Z,4656
2018-05-24T05:46:59.814Z,4668
2018-05-24T05:48:01.862Z,4692
2018-05-24T05:49:04.197Z,4716
2018-05-24T05:50:06.230Z,4728
2018-05-24T05:51:08.281Z,4740
2018-05-24T05:52:10.375Z,4744
2018-05-24T05:53:12.359Z,4756
2018-05-24T05:54:14.393Z,4776
2018-05-24T05:55:16.819Z,4780
2018-05-24T05:56:18.856Z,4792
2018-05-24T05:57:20.888Z,4812
2018-05-24T05:58:23.784Z,4828
2018-05-24T05:59:26.216Z,4848
2018-05-24T06:00:28.245Z,4864
2018-05-24T06:01:30.680Z,4876
2018-05-24T06:02:32.635Z,4896
2018-05-24T06:03:34.667Z,4904
2018-05-24T06:04:36.711Z,4920
2018-05-24T06:05:38.752Z,4940
2018-05-24T06:06:40.799Z,4940
2018-05-24T06:07:43.117Z,4940
2018-05-24T06:08:45.158Z,4968
2018-05-24T06:09:47.594Z,4972
2018-05-24T06:10:49.623Z,4976
2018-05-24T06:11:51.670Z,4976
2018-05-24T06:12:53.999Z,4988
2018-05-24T06:13:56.127Z,5012
2018-05-24T06:14:58.079Z,5028
2018-05-24T06:16:00.118Z,5044
2018-05-24T06:17:02.156Z,5056
2018-05-24T06:18:04.191Z,5072
2018-05-24T06:19:06.228Z,5084
2018-05-24T06:20:08.277Z,5100
2018-05-24T06:21:10.322Z,5112
2018-05-24T06:22:12.736Z,5124
2018-05-24T06:23:14.778Z,5140
2018-05-24T06:24:16.821Z,5152
2018-05-24T06:25:18.865Z,5160
2018-05-24T06:26:20.909Z,5172
2018-05-24T06:27:22.955Z,5180
2018-05-24T06:28:25.029Z,5184
2018-05-24T06:29:27.350Z,5200
2018-05-24T06:30:29.389Z,5212
2018-05-24T06:31:31.437Z,5232
2018-05-24T06:32:33.765Z,5244
2018-05-24T06:33:35.808Z,5256
2018-05-24T06:34:37.851Z,5260
2018-05-24T06:35:39.888Z,5264
2018-05-24T06:36:42.325Z,5264
2018-05-24T06:37:44.365Z,5280
2018-05-24T06:38:46.412Z,5284
2018-05-24T06:39:48.449Z,5300
2018-05-24T06:40:50.490Z,5316
2018-05-24T06:41:52.585Z,5332
2018-05-24T06:42:55.037Z,5340
2018-05-24T06:43:57.075Z,5364
2018-05-24T06:44:59.123Z,5364
2018-05-24T06:46:01.157Z,5376
2018-05-24T06:47:03.499Z,5392
2018-05-24T06:48:05.594Z,5408
2018-05-24T06:49:08.340Z,5416
2018-05-24T06:50:10.379Z,5424
2018-05-24T06:51:12.417Z,5420
2018-05-24T06:52:14.492Z,5432
2018-05-24T06:53:16.506Z,5444
2018-05-24T06:54:18.547Z,5444
2018-05-24T06:55:20.600Z,5460
2018-05-24T06:56:22.645Z,5460
2018-05-24T06:57:25.356Z,5456
2018-05-24T06:58:27.402Z,5480
2018-05-24T06:59:29.441Z,5492
2018-05-24T07:00:31.489Z,5500
2018-05-24T07:01:33.521Z,5516
2018-05-24T07:02:35.581Z,5564
2018-05-24T07:03:37.626Z,5588
2018-05-24T07:04:39.660Z,5604
2018-05-24T07:05:41.711Z,5632
2018-05-24T07:06:43.754Z,5656
2018-05-24T07:07:46.084Z,5676
2018-05-24T07:08:48.130Z,5672
2018-05-24T07:09:50.160Z,5708
2018-05-24T07:10:52.213Z,5748
2018-05-24T07:11:54.578Z,5776
2018-05-24T07:12:56.621Z,5800
2018-05-24T07:13:58.666Z,5820
2018-05-24T07:15:00.697Z,5852
2018-05-24T07:16:02.737Z,5880
2018-05-24T07:17:04.793Z,5912
2018-05-24T07:18:06.838Z,5920
2018-05-24T07:19:08.884Z,5952
2018-05-24T07:20:10.928Z,5968
2018-05-24T07:21:12.967Z,6020
2018-05-24T07:22:15.002Z,6024
2018-05-24T07:23:17.048Z,6076
2018-05-24T07:24:19.383Z,6092
2018-05-24T07:25:21.430Z,6120
2018-05-24T07:26:23.752Z,6148
2018-05-24T07:27:25.797Z,6172
2018-05-24T07:28:27.851Z,6204
2018-05-24T07:29:29.898Z,6244
2018-05-24T07:30:31.936Z,6248
2018-05-24T07:31:33.981Z,6280
2018-05-24T07:32:36.033Z,6308
2018-05-24T07:33:38.071Z,6328
2018-05-24T07:34:40.117Z,6344
2018-05-24T07:35:42.173Z,6388
2018-05-24T07:36:44.597Z,6408
2018-05-24T07:37:46.731Z,6412
2018-05-24T07:38:49.080Z,6416
2018-05-24T07:39:51.125Z,6452
2018-05-24T07:40:53.463Z,6484
2018-05-24T07:41:55.501Z,6480
2018-05-24T07:42:57.564Z,6504
2018-05-24T07:43:59.608Z,6548
2018-05-24T07:45:01.652Z,6540
2018-05-24T07:46:04.125Z,6556
2018-05-24T07:47:06.175Z,6616
2018-05-24T07:48:08.604Z,6628
2018-05-24T07:49:11.051Z,6648
2018-05-24T07:50:13.078Z,6704
2018-05-24T07:51:15.125Z,6708
2018-05-24T07:52:17.171Z,6732
2018-05-24T07:53:19.214Z,6756
2018-05-24T07:54:21.253Z,6780
2018-05-24T07:55:23.691Z,6800
2018-05-24T07:56:25.730Z,6856
2018-05-24T07:57:27.793Z,6880
2018-05-24T07:58:30.126Z,6896
2018-05-24T07:59:32.174Z,6900
2018-05-24T08:00:34.222Z,6952
2018-05-24T08:01:36.358Z,7004
2018-05-24T08:02:38.309Z,7044
2018-05-24T08:03:40.346Z,7112
2018-05-24T08:04:42.394Z,7160
2018-05-24T08:05:44.441Z,7172
2018-05-24T08:06:46.477Z,7200
2018-05-24T08:07:48.539Z,7248
2018-05-24T08:08:51.451Z,7280
2018-05-24T08:09:53.501Z,7312
2018-05-24T08:10:56.228Z,7360
2018-05-24T08:11:58.270Z,7432
2018-05-24T08:13:00.781Z,7460
2018-05-24T08:14:03.046Z,7508
2018-05-24T08:15:05.087Z,7552
2018-05-24T08:16:07.145Z,7564
2018-05-24T08:17:09.186Z,7576
2018-05-24T08:18:11.238Z,7652
2018-05-24T08:19:13.276Z,7756
2018-05-24T08:20:15.622Z,7908
2018-05-24T08:21:17.963Z,12508
2018-05-24T08:22:20.012Z,25632
2018-05-24T08:23:22.063Z,29024
2018-05-24T08:24:24.118Z,34304
2018-05-24T08:25:26.150Z,27392
2018-05-24T08:26:28.192Z,29536
2018-05-24T08:27:30.242Z,23936
2018-05-24T08:28:32.603Z,30752
2018-05-24T08:29:34.649Z,28480
2018-05-24T08:30:36.696Z,36544
2018-05-24T08:31:38.738Z,33888
2018-05-24T08:32:40.800Z,38048
2018-05-24T08:33:43.144Z,26624
2018-05-24T08:34:45.973Z,47936
2018-05-24T08:35:48.407Z,82976
2018-05-24T08:36:50.736Z,96832
2018-05-24T08:37:52.780Z,92320
2018-05-24T08:38:54.822Z,89504
2018-05-24T08:39:56.872Z,89664
2018-05-24T08:40:59.096Z,96224
2018-05-24T08:42:00.957Z,102368
2018-05-24T08:43:03.000Z,92960
2018-05-24T08:44:05.045Z,88896
2018-05-24T08:45:07.098Z,85536
2018-05-24T08:46:09.141Z,82816
2018-05-24T08:47:11.525Z,84416
2018-05-24T08:48:13.555Z,90368
2018-05-24T08:49:15.597Z,92640
2018-05-24T08:50:17.644Z,79872
2018-05-24T08:51:19.700Z,73920
2018-05-24T08:52:21.742Z,80448
2018-05-24T08:53:23.834Z,88608
2018-05-24T08:54:25.848Z,102240
2018-05-24T08:55:27.901Z,102336
2018-05-24T08:56:29.932Z,96544
2018-05-24T08:57:32.275Z,86752
2018-05-24T08:58:34.321Z,83616
2018-05-24T08:59:36.366Z,85120
2018-05-24T09:00:38.415Z,82880
2018-05-24T09:01:40.465Z,81984
2018-05-24T09:02:42.514Z,85920
2018-05-24T09:03:44.570Z,90464
2018-05-24T09:04:46.908Z,41472
2018-05-24T09:05:48.941Z,80224
2018-05-24T09:06:50.990Z,79936
2018-05-24T09:07:53.329Z,81312
2018-05-24T09:08:55.434Z,82336
2018-05-24T09:09:57.715Z,86688
2018-05-24T09:10:59.763Z,90912
2018-05-24T09:12:01.814Z,95072
2018-05-24T09:13:04.261Z,96576
2018-05-24T09:14:06.298Z,94272
2018-05-24T09:15:08.357Z,98304
2018-05-24T09:16:10.402Z,104672
2018-05-24T09:17:12.453Z,97504
2018-05-24T09:18:14.503Z,97440
2018-05-24T09:19:17.238Z,107552
2018-05-24T09:20:19.568Z,112864
2018-05-24T09:21:21.620Z,114912
2018-05-24T09:22:23.717Z,109664
2018-05-24T09:23:26.061Z,107104
2018-05-24T09:24:28.107Z,120896
2018-05-24T09:25:30.168Z,120608
2018-05-24T09:26:32.501Z,112736
2018-05-24T09:27:34.860Z,113088
2018-05-24T09:28:37.224Z,110976
2018-05-24T09:29:39.957Z,102016
2018-05-24T09:30:42.008Z,97344
2018-05-24T09:31:44.064Z,96864
2018-05-24T09:32:46.112Z,98944
2018-05-24T09:33:48.165Z,100608
2018-05-24T09:34:50.218Z,103072
2018-05-24T09:35:52.274Z,106112
2018-05-24T09:36:54.693Z,105792
2018-05-24T09:37:56.828Z,99456
2018-05-24T09:38:58.938Z,96512
2018-05-24T09:40:02.936Z,99584
2018-05-24T09:41:05.378Z,101728
2018-05-24T09:42:08.001Z,102528
2018-05-24T09:43:10.140Z,105312
2018-05-24T09:44:14.557Z,109184
2018-05-24T09:45:17.004Z,117696
2018-05-24T09:46:19.340Z,123872
2018-05-24T09:47:22.338Z,121280
2018-05-24T09:48:24.721Z,108032
2018-05-24T09:49:27.832Z,100160
2018-05-24T09:50:31.722Z,101728
2018-05-24T09:51:33.837Z,95136
2018-05-24T09:52:36.255Z,97504
2018-05-24T09:53:39.011Z,114784
2018-05-24T09:54:41.244Z,129088
2018-05-24T09:55:43.303Z,125152
2018-05-24T09:56:45.748Z,118400
2018-05-24T09:57:49.332Z,117120
2018-05-24T09:58:52.098Z,119488
2018-05-24T09:59:54.545Z,115360
2018-05-24T10:00:56.631Z,113248
2018-05-24T10:01:58.788Z,115296
2018-05-24T10:03:01.204Z,119264
2018-05-24T10:04:03.803Z,123904
2018-05-24T10:05:05.868Z,128416
2018-05-24T10:06:08.939Z,140672
2018-05-24T10:07:11.085Z,149056
2018-05-24T10:08:13.276Z,141440
2018-05-24T10:09:15.396Z,135936
2018-05-24T10:10:19.069Z,139232
2018-05-24T10:11:21.159Z,132256
2018-05-24T10:12:23.343Z,122688
2018-05-24T10:13:25.969Z,123392
2018-05-24T10:14:28.106Z,117376
2018-05-24T10:15:30.375Z,103456
2018-05-24T10:16:32.849Z,96416
2018-05-24T10:17:35.684Z,104864
2018-05-24T10:18:37.862Z,112352
2018-05-24T10:19:40.566Z,114080
2018-05-24T10:20:43.075Z,114304
2018-05-24T10:21:46.060Z,124512
2018-05-24T10:22:48.661Z,137632
2018-05-24T10:23:50.715Z,141216
2018-05-24T10:24:52.967Z,142784
2018-05-24T10:25:55.415Z,135936
2018-05-24T10:26:57.530Z,126912
2018-05-24T10:28:00.010Z,120160
2018-05-24T10:29:03.348Z,125824
2018-05-24T10:30:05.992Z,125856
2018-05-24T10:31:08.650Z,119072
2018-05-24T10:32:11.787Z,123520
2018-05-24T10:33:13.915Z,123520
2018-05-24T10:34:15.976Z,120544
2018-05-24T10:35:18.014Z,120064
2018-05-24T10:36:20.031Z,116576
2018-05-24T10:37:22.098Z,110176
2018-05-24T10:38:24.546Z,109920
2018-05-24T10:39:26.889Z,113600
2018-05-24T10:40:29.688Z,109760
2018-05-24T10:41:32.058Z,111680
2018-05-24T10:42:34.120Z,113632
2018-05-24T10:43:36.176Z,108416
2018-05-24T10:44:38.235Z,114592
2018-05-24T10:45:40.298Z,121184
2018-05-24T10:46:42.631Z,125728
2018-05-24T10:47:44.699Z,129216
2018-05-24T10:48:47.115Z,127168
2018-05-24T10:49:49.172Z,127808
2018-05-24T10:50:52.008Z,136128
2018-05-24T10:51:54.463Z,148992
2018-05-24T10:52:56.512Z,147488
2018-05-24T10:53:58.895Z,132960
2018-05-24T10:55:00.956Z,119392
2018-05-24T10:56:03.055Z,120544
2018-05-24T10:57:05.117Z,122880
2018-05-24T10:58:07.177Z,123616
2018-05-24T10:59:09.241Z,128320
2018-05-24T11:00:11.305Z,127872
2018-05-24T11:01:14.043Z,122592
2018-05-24T11:02:16.505Z,119264
2018-05-24T11:03:18.565Z,114240
2018-05-24T11:04:21.019Z,113984
2018-05-24T11:05:23.078Z,126752
2018-05-24T11:06:25.424Z,129056
2018-05-24T11:07:27.996Z,121280
2018-05-24T11:08:30.047Z,127680
2018-05-24T11:09:32.100Z,142240
2018-05-24T11:10:34.159Z,135680
2018-05-24T11:11:36.217Z,125472
2018-05-24T11:12:38.278Z,135392
2018-05-24T11:13:40.336Z,139424
2018-05-24T11:14:42.400Z,133312
2018-05-24T11:15:44.459Z,136416
2018-05-24T11:16:46.807Z,136864
2018-05-24T11:17:48.868Z,133056
2018-05-24T11:18:50.935Z,141024
2018-05-24T11:19:52.994Z,138464
2018-05-24T11:20:55.059Z,129056
2018-05-24T11:21:57.117Z,123520
2018-05-24T11:22:59.547Z,120512
2018-05-24T11:24:01.616Z,123584
2018-05-24T11:25:04.043Z,131520
2018-05-24T11:26:06.417Z,135136
2018-05-24T11:27:08.462Z,131232
2018-05-24T11:28:10.523Z,133888
2018-05-24T11:29:12.580Z,142624
2018-05-24T11:30:14.632Z,141440
2018-05-24T11:31:16.982Z,138688
2018-05-24T11:32:19.044Z,145824
2018-05-24T11:33:21.407Z,148960
2018-05-24T11:34:23.466Z,141600
2018-05-24T11:35:25.520Z,139776
2018-05-24T11:36:27.874Z,138624
2018-05-24T11:37:29.923Z,135456
2018-05-24T11:38:31.982Z,129568
2018-05-24T11:39:34.039Z,119168
2018-05-24T11:40:36.989Z,114848
2018-05-24T11:41:39.338Z,119072
2018-05-24T11:42:41.414Z,123904
2018-05-24T11:43:43.862Z,122496
2018-05-24T11:44:45.928Z,129344
2018-05-24T11:45:47.988Z,138656
2018-05-24T11:46:50.053Z,132384
2018-05-24T11:47:52.393Z,122624
2018-05-24T11:48:54.459Z,120672
2018-05-24T11:49:56.797Z,128512
2018-05-24T11:50:58.877Z,137856
2018-05-24T11:52:00.974Z,139840
2018-05-24T11:53:02.986Z,128928
2018-05-24T11:54:05.358Z,118912
2018-05-24T11:55:07.412Z,120768
2018-05-24T11:56:09.474Z,129632
2018-05-24T11:57:11.538Z,140288
2018-05-24T11:58:13.599Z,147136
2018-05-24T11:59:15.659Z,140576
2018-05-24T12:00:17.724Z,129120
2018-05-24T12:01:20.479Z,127840
2018-05-24T12:02:22.530Z,144960
2018-05-24T12:03:24.592Z,152576
2018-05-24T12:04:26.656Z,140768
2018-05-24T12:05:28.731Z,130272
2018-05-24T12:06:30.770Z,127616
2018-05-24T12:07:32.833Z,122240
2018-05-24T12:08:34.890Z,118784
2018-05-24T12:09:36.955Z,127936
2018-05-24T12:10:39.317Z,142272
2018-05-24T12:11:41.384Z,140192
2018-05-24T12:12:43.757Z,132096
2018-05-24T12:13:45.813Z,121408
2018-05-24T12:14:47.879Z,115904
2018-05-24T12:15:49.924Z,120064
2018-05-24T12:16:51.985Z,132288
2018-05-24T12:17:54.042Z,146624
2018-05-24T12:18:56.097Z,146368
2018-05-24T12:19:58.157Z,137824
2018-05-24T12:21:00.538Z,136672
2018-05-24T12:22:02.591Z,146016
2018-05-24T12:23:04.669Z,139008
2018-05-24T12:24:06.720Z,125728
2018-05-24T12:25:08.778Z,112384
2018-05-24T12:26:10.840Z,108352
2018-05-24T12:27:12.891Z,110400
2018-05-24T12:28:14.956Z,107136
2018-05-24T12:29:17.305Z,106080
2018-05-24T12:30:19.362Z,110400
2018-05-24T12:31:21.425Z,118560
2018-05-24T12:32:23.478Z,125600
2018-05-24T12:33:25.550Z,123616
2018-05-24T12:34:27.891Z,111584
2018-05-24T12:35:30.051Z,114144
2018-05-24T12:36:32.017Z,116128
2018-05-24T12:37:34.088Z,113280
2018-05-24T12:38:36.133Z,123680
2018-05-24T12:39:38.192Z,132928
2018-05-24T12:40:40.249Z,74016
2018-05-24T12:41:42.374Z,125696
2018-05-24T12:42:44.989Z,117472
2018-05-24T12:43:47.365Z,119040
2018-05-24T12:44:49.417Z,122400
2018-05-24T12:45:51.784Z,123712
2018-05-24T12:46:53.846Z,122944
2018-05-24T12:47:55.906Z,123104
2018-05-24T12:48:58.590Z,118208
2018-05-24T12:50:00.645Z,113376
2018-05-24T12:51:02.691Z,112896
2018-05-24T12:52:04.755Z,114816
2018-05-24T12:53:07.099Z,112768
2018-05-24T12:54:09.838Z,117760
2018-05-24T12:55:11.905Z,118592
2018-05-24T12:56:14.228Z,117920
2018-05-24T12:57:16.286Z,116960
2018-05-24T12:58:18.356Z,117536
2018-05-24T12:59:20.405Z,118784
2018-05-24T13:00:22.755Z,120192
2018-05-24T13:01:24.818Z,115488
2018-05-24T13:02:27.171Z,116672
2018-05-24T13:03:29.228Z,119264
2018-05-24T13:04:31.290Z,113216
2018-05-24T13:05:33.363Z,106208
2018-05-24T13:06:35.415Z,109536
2018-05-24T13:07:37.470Z,113632
2018-05-24T13:08:39.922Z,112480
2018-05-24T13:09:41.979Z,110336
2018-05-24T13:10:44.048Z,72736
2018-05-24T13:11:46.106Z,98816
2018-05-24T13:12:48.567Z,95168
2018-05-24T13:13:50.923Z,94304
2018-05-24T13:14:52.972Z,102304
2018-05-24T13:15:55.026Z,102304
2018-05-24T13:16:57.109Z,97120
2018-05-24T13:17:59.476Z,96288
2018-05-24T13:19:01.539Z,94848
2018-05-24T13:20:03.600Z,96928
2018-05-24T13:21:05.660Z,100256
2018-05-24T13:22:07.713Z,99872
2018-05-24T13:23:09.769Z,104128
2018-05-24T13:24:11.845Z,107296
2018-05-24T13:25:14.368Z,96448
2018-05-24T13:26:17.014Z,88288
2018-05-24T13:27:19.079Z,93440
2018-05-24T13:28:21.139Z,102176
2018-05-24T13:29:23.200Z,103456
2018-05-24T13:30:25.547Z,42016
2018-05-24T13:31:27.600Z,103808
2018-05-24T13:32:29.672Z,113152
2018-05-24T13:33:31.722Z,121984
2018-05-24T13:34:33.862Z,118912
2018-05-24T13:35:35.842Z,104512
2018-05-24T13:36:37.907Z,95040
2018-05-24T13:37:40.265Z,88672
2018-05-24T13:38:42.321Z,27552
2018-05-24T13:39:44.393Z,75168
2018-05-24T13:40:46.457Z,60320
2018-05-24T13:41:48.513Z,87808
2018-05-24T13:42:50.580Z,49120
2018-05-24T13:43:52.635Z,89120
2018-05-24T13:44:54.698Z,89888
2018-05-24T13:45:56.758Z,89600